Time;durP1;ratioP1;P1;durP2;ratioP2;P2;SDS_P1;SDS_P2;PMS_P1;PMS_P2;Temp;Humidity;BMP_temperature;BMP_pressure;BME280_temperature;BME280_humidity;BME280_pressure;Samples;Min_cycle;Max_cycle;Signal;HPM_P1;HPM_P2
2023/09/09 00:00:18;;;;;;;0.10;0.10;;;;;;;;;;6309950;28;20027;-88
2023/09/09 00:03:19;;;;;;;0.10;0.10;;;;;;;;;;6275114;28;20021;-87
2023/09/09 00:06:20;;;;;;;0.10;0.10;;;;;;;;;;6268427;28;20506;-87
2023/09/09 00:09:20;;;;;;;0.10;0.10;;;;;;;;;;6287796;28;20103;-87
2023/09/09 00:12:20;;;;;;;0.10;0.10;;;;;;;;;;6266264;28;20032;-87
2023/09/09 00:15:20;;;;;;;0.10;0.10;;;;;;;;;;6298492;28;20469;-87
2023/09/09 00:18:21;;;;;;;0.10;0.10;;;;;;;;;;6286604;28;20021;-87
2023/09/09 00:21:21;;;;;;;0.10;0.10;;;;;;;;;;6285876;28;20025;-87
2023/09/09 00:24:21;;;;;;;0.10;0.10;;;;;;;;;;6261815;28;20074;-87
2023/09/09 00:27:21;;;;;;;0.10;0.10;;;;;;;;;;6292040;28;20020;-87
2023/09/09 00:30:22;;;;;;;0.20;0.20;;;;;;;;;;6262646;28;20021;-87
2023/09/09 00:33:22;;;;;;;0.10;0.10;;;;;;;;;;6297908;28;20091;-86
2023/09/09 00:36:22;;;;;;;0.10;0.10;;;;;;;;;;6291605;28;20390;-87
2023/09/09 00:39:22;;;;;;;0.10;0.10;;;;;;;;;;6286452;28;20024;-87
2023/09/09 00:42:23;;;;;;;0.10;0.10;;;;;;;;;;6272131;28;20025;-87
2023/09/09 00:45:23;;;;;;;0.10;0.10;;;;;;;;;;6272666;28;20024;-86
2023/09/09 00:48:23;;;;;;;0.10;0.10;;;;;;;;;;6293335;28;20459;-86
2023/09/09 00:51:23;;;;;;;0.17;0.17;;;;;;;;;;6290203;28;20368;-87
2023/09/09 00:54:24;;;;;;;0.10;0.10;;;;;;;;;;6284399;28;20507;-87
2023/09/09 00:57:25;;;;;;;0.10;0.10;;;;;;;;;;6283957;28;20025;-87
2023/09/09 01:00:26;;;;;;;0.10;0.10;;;;;;;;;;6286633;28;20338;-87
2023/09/09 01:03:26;;;;;;;0.10;0.10;;;;;;;;;;6271173;28;20386;-86
2023/09/09 01:06:26;;;;;;;0.10;0.10;;;;;;;;;;6295177;28;20973;-86
2023/09/09 01:09:27;;;;;;;0.10;0.10;;;;;;;;;;6287974;28;20411;-87
2023/09/09 01:12:27;;;;;;;0.10;0.10;;;;;;;;;;6281439;28;20094;-87
2023/09/09 01:15:28;;;;;;;0.10;0.10;;;;;;;;;;6282763;28;20470;-87
2023/09/09 01:18:28;;;;;;;0.10;0.10;;;;;;;;;;6272824;28;20028;-87
2023/09/09 01:21:31;;;;;;;0.10;0.10;;;;;;;;;;6291074;28;20024;-87
2023/09/09 01:24:32;;;;;;;0.10;0.10;;;;;;;;;;6283194;28;20046;-86
2023/09/09 01:27:33;;;;;;;0.20;0.20;;;;;;;;;;6308120;28;20027;-87
2023/09/09 01:30:33;;;;;;;0.10;0.10;;;;;;;;;;6288767;28;20472;-86
2023/09/09 01:33:33;;;;;;;0.10;0.10;;;;;;;;;;6282205;28;20489;-87
2023/09/09 01:36:33;;;;;;;0.10;0.10;;;;;;;;;;6264302;28;20776;-86
2023/09/09 01:39:34;;;;;;;0.10;0.10;;;;;;;;;;6270782;28;20374;-86
2023/09/09 01:42:34;;;;;;;0.10;0.10;;;;;;;;;;6281679;28;20052;-87
2023/09/09 01:45:34;;;;;;;0.10;0.10;;;;;;;;;;6284980;28;20388;-86
2023/09/09 01:48:35;;;;;;;0.13;0.13;;;;;;;;;;6275192;28;20119;-87
2023/09/09 01:51:35;;;;;;;0.10;0.10;;;;;;;;;;6288988;28;20016;-86
2023/09/09 01:54:35;;;;;;;0.10;0.10;;;;;;;;;;6289895;28;20012;-87
2023/09/09 01:57:35;;;;;;;0.10;0.10;;;;;;;;;;6292611;28;20020;-86
2023/09/09 02:00:36;;;;;;;0.10;0.10;;;;;;;;;;6269331;28;20028;-86
2023/09/09 02:03:36;;;;;;;0.10;0.10;;;;;;;;;;6297097;28;20445;-86
2023/09/09 02:06:36;;;;;;;0.10;0.10;;;;;;;;;;6283061;28;20454;-86
2023/09/09 02:09:37;;;;;;;0.13;0.13;;;;;;;;;;6290620;28;20600;-86
2023/09/09 02:12:37;;;;;;;0.20;0.20;;;;;;;;;;6291503;28;20082;-86
2023/09/09 02:15:37;;;;;;;0.10;0.10;;;;;;;;;;6263129;28;20067;-86
2023/09/09 02:18:37;;;;;;;0.10;0.10;;;;;;;;;;6293469;28;20425;-86
2023/09/09 02:21:38;;;;;;;0.20;0.20;;;;;;;;;;6293182;28;20410;-86
2023/09/09 02:24:38;;;;;;;0.10;0.10;;;;;;;;;;6282956;28;20020;-86
2023/09/09 02:27:38;;;;;;;0.10;0.10;;;;;;;;;;6269695;28;20437;-86
2023/09/09 02:30:38;;;;;;;0.10;0.10;;;;;;;;;;6269520;28;20115;-86
2023/09/09 02:33:39;;;;;;;0.10;0.10;;;;;;;;;;6272602;28;20031;-86
2023/09/09 02:36:43;;;;;;;0.10;0.10;;;;;;;;;;6309193;28;20539;-83
2023/09/09 02:39:44;;;;;;;0.13;0.13;;;;;;;;;;6295275;28;20056;-81
2023/09/09 02:42:44;;;;;;;0.10;0.10;;;;;;;;;;6275907;28;20013;-81
2023/09/09 02:45:44;;;;;;;0.10;0.10;;;;;;;;;;6271381;28;20058;-82
2023/09/09 02:48:45;;;;;;;0.10;0.10;;;;;;;;;;6287334;28;20095;-82
2023/09/09 02:51:45;;;;;;;0.20;0.20;;;;;;;;;;6293039;28;20477;-81
2023/09/09 02:54:45;;;;;;;0.10;0.10;;;;;;;;;;6283879;28;20429;-81
2023/09/09 02:57:51;;;;;;;0.10;0.10;;;;;;;;;;6299176;28;20066;-82
2023/09/09 03:00:51;;;;;;;0.10;0.10;;;;;;;;;;6270377;28;20032;-81
2023/09/09 03:03:52;;;;;;;0.10;0.10;;;;;;;;;;6292196;28;20029;-81
2023/09/09 03:06:52;;;;;;;0.10;0.10;;;;;;;;;;6268544;28;20391;-82
2023/09/09 03:09:53;;;;;;;0.10;0.10;;;;;;;;;;6283841;28;20072;-82
2023/09/09 03:12:53;;;;;;;0.20;0.20;;;;;;;;;;6280897;28;20024;-82
2023/09/09 03:15:53;;;;;;;0.10;0.10;;;;;;;;;;6273931;28;20748;-82
2023/09/09 03:18:54;;;;;;;0.20;0.20;;;;;;;;;;6275424;28;20071;-82
2023/09/09 03:21:54;;;;;;;0.20;0.20;;;;;;;;;;6291187;28;20143;-82
2023/09/09 03:24:54;;;;;;;0.10;0.10;;;;;;;;;;6287813;28;20627;-82
2023/09/09 03:27:54;;;;;;;0.20;0.20;;;;;;;;;;6268206;28;20017;-82
2023/09/09 03:30:55;;;;;;;0.17;0.17;;;;;;;;;;6265673;28;20027;-82
2023/09/09 03:33:56;;;;;;;0.10;0.10;;;;;;;;;;6289291;28;20134;-82
2023/09/09 03:36:56;;;;;;;0.10;0.10;;;;;;;;;;6282841;28;20017;-82
2023/09/09 03:39:56;;;;;;;0.20;0.20;;;;;;;;;;6298231;28;20405;-82
2023/09/09 03:42:57;;;;;;;0.17;0.17;;;;;;;;;;6272055;28;20055;-82
2023/09/09 03:45:57;;;;;;;0.20;0.20;;;;;;;;;;6298858;28;20032;-82
2023/09/09 03:48:57;;;;;;;0.20;0.20;;;;;;;;;;6282751;28;20035;-82
2023/09/09 03:51:57;;;;;;;0.20;0.20;;;;;;;;;;6285970;28;20238;-82
2023/09/09 03:54:58;;;;;;;0.20;0.20;;;;;;;;;;6268612;28;20478;-82
2023/09/09 03:57:58;;;;;;;0.10;0.10;;;;;;;;;;6289070;28;20021;-82
2023/09/09 04:01:05;;;;;;;0.17;0.17;;;;;;;;;;6304124;28;20035;-82
2023/09/09 04:04:05;;;;;;;0.15;0.15;;;;;;;;;;6284411;28;20027;-82
2023/09/09 04:07:06;;;;;;;0.10;0.10;;;;;;;;;;6301867;28;20514;-81
2023/09/09 04:10:06;;;;;;;0.20;0.20;;;;;;;;;;6274785;28;20497;-82
2023/09/09 04:13:06;;;;;;;0.20;0.20;;;;;;;;;;6291621;28;20596;-83
2023/09/09 04:16:07;;;;;;;0.20;0.20;;;;;;;;;;6297778;28;20548;-82
2023/09/09 04:19:07;;;;;;;0.20;0.20;;;;;;;;;;6286923;28;20041;-81
2023/09/09 04:22:07;;;;;;;0.20;0.20;;;;;;;;;;6286907;28;20418;-82
2023/09/09 04:25:07;;;;;;;0.20;0.20;;;;;;;;;;6272710;28;20032;-82
2023/09/09 04:28:10;;;;;;;0.20;0.20;;;;;;;;;;6298328;28;20262;-82
2023/09/09 04:31:10;;;;;;;0.20;0.20;;;;;;;;;;6296304;28;20024;-82
2023/09/09 04:34:10;;;;;;;0.20;0.20;;;;;;;;;;6283287;28;20466;-82
2023/09/09 04:37:11;;;;;;;0.20;0.20;;;;;;;;;;6293786;28;20035;-85
2023/09/09 04:40:11;;;;;;;0.20;0.20;;;;;;;;;;6293025;28;20021;-81
2023/09/09 04:43:11;;;;;;;0.10;0.10;;;;;;;;;;6272695;28;20028;-81
2023/09/09 04:46:11;;;;;;;0.20;0.20;;;;;;;;;;6276541;28;20091;-82
2023/09/09 04:49:12;;;;;;;0.10;0.10;;;;;;;;;;6292719;28;20052;-82
2023/09/09 04:52:12;;;;;;;0.20;0.20;;;;;;;;;;6292353;28;20059;-82
2023/09/09 04:55:12;;;;;;;0.20;0.20;;;;;;;;;;6279476;28;20017;-83
2023/09/09 04:58:13;;;;;;;0.10;0.10;;;;;;;;;;6281176;28;20589;-82
2023/09/09 05:01:13;;;;;;;0.10;0.10;;;;;;;;;;6291704;28;20025;-81
2023/09/09 05:04:13;;;;;;;0.10;0.10;;;;;;;;;;6284183;28;20054;-82
2023/09/09 05:07:13;;;;;;;0.10;0.10;;;;;;;;;;6287877;28;20041;-82
2023/09/09 05:10:14;;;;;;;0.10;0.10;;;;;;;;;;6296925;28;20470;-82
2023/09/09 05:13:14;;;;;;;0.10;0.10;;;;;;;;;;6271117;28;20055;-83
2023/09/09 05:16:14;;;;;;;0.10;0.10;;;;;;;;;;6272308;28;20102;-83
2023/09/09 05:19:15;;;;;;;0.10;0.10;;;;;;;;;;6289303;28;20032;-83
2023/09/09 05:22:16;;;;;;;0.10;0.10;;;;;;;;;;6295611;28;20032;-82
2023/09/09 05:25:16;;;;;;;0.10;0.10;;;;;;;;;;6273219;28;20095;-83
2023/09/09 05:28:16;;;;;;;0.10;0.10;;;;;;;;;;6307464;28;20277;-83
2023/09/09 05:31:17;;;;;;;0.10;0.10;;;;;;;;;;6272630;28;20721;-82
2023/09/09 05:34:17;;;;;;;0.10;0.10;;;;;;;;;;6264047;28;20029;-81
2023/09/09 05:37:17;;;;;;;0.10;0.10;;;;;;;;;;6274194;28;20094;-83
2023/09/09 05:40:17;;;;;;;0.10;0.10;;;;;;;;;;6279465;28;20684;-83
2023/09/09 05:43:18;;;;;;;0.10;0.10;;;;;;;;;;6275618;28;20046;-82
2023/09/09 05:46:18;;;;;;;0.10;0.10;;;;;;;;;;6288734;28;20036;-82
2023/09/09 05:49:18;;;;;;;0.10;0.10;;;;;;;;;;6292776;28;20620;-82
2023/09/09 05:52:18;;;;;;;0.10;0.10;;;;;;;;;;6294129;28;20031;-82
2023/09/09 05:55:19;;;;;;;0.00;0.00;;;;;;;;;;6284549;28;20020;-82
2023/09/09 05:58:19;;;;;;;0.10;0.10;;;;;;;;;;6281912;28;20029;-83
2023/09/09 06:01:19;;;;;;;0.10;0.10;;;;;;;;;;6286746;28;20044;-83
2023/09/09 06:04:19;;;;;;;0.10;0.10;;;;;;;;;;6265895;28;20025;-82
2023/09/09 06:07:20;;;;;;;0.10;0.10;;;;;;;;;;6298710;28;20050;-82
2023/09/09 06:10:20;;;;;;;0.00;0.00;;;;;;;;;;6291165;28;20028;-82
2023/09/09 06:13:20;;;;;;;0.03;0.03;;;;;;;;;;6292529;28;20020;-82
2023/09/09 06:16:20;;;;;;;0.00;0.00;;;;;;;;;;6267956;28;20028;-82
2023/09/09 06:19:21;;;;;;;0.10;0.10;;;;;;;;;;6275693;28;20036;-83
2023/09/09 06:22:21;;;;;;;0.00;0.00;;;;;;;;;;6260960;28;20128;-82
2023/09/09 06:25:21;;;;;;;0.00;0.00;;;;;;;;;;6266678;28;20024;-83
2023/09/09 06:28:23;;;;;;;0.00;0.00;;;;;;;;;;6272881;28;20548;-82
2023/09/09 06:31:23;;;;;;;0.00;0.00;;;;;;;;;;6267328;28;20052;-82
2023/09/09 06:34:23;;;;;;;0.00;0.00;;;;;;;;;;6269623;28;20522;-83
2023/09/09 06:37:23;;;;;;;0.00;0.00;;;;;;;;;;6277216;28;20086;-83
2023/09/09 06:40:24;;;;;;;0.00;0.00;;;;;;;;;;6268572;28;20025;-83
2023/09/09 06:43:24;;;;;;;0.00;0.00;;;;;;;;;;6292034;28;20024;-83
2023/09/09 06:46:24;;;;;;;0.00;0.00;;;;;;;;;;6289583;28;20024;-83
2023/09/09 06:49:24;;;;;;;0.00;0.00;;;;;;;;;;6274739;28;20043;-83
2023/09/09 06:52:24;;;;;;;0.00;0.00;;;;;;;;;;6268689;28;20024;-84
2023/09/09 06:55:25;;;;;;;0.00;0.00;;;;;;;;;;6281573;28;20099;-84
2023/09/09 06:58:25;;;;;;;0.00;0.00;;;;;;;;;;6270562;28;20125;-83
2023/09/09 07:01:25;;;;;;;0.00;0.00;;;;;;;;;;6283947;28;20028;-84
2023/09/09 07:04:25;;;;;;;0.00;0.00;;;;;;;;;;6293553;28;20016;-84
2023/09/09 07:07:26;;;;;;;0.00;0.00;;;;;;;;;;6272272;28;20095;-83
2023/09/09 07:10:26;;;;;;;0.00;0.00;;;;;;;;;;6296764;28;20020;-83
2023/09/09 07:13:27;;;;;;;0.00;0.00;;;;;;;;;;6295622;28;20047;-83
2023/09/09 07:16:31;;;;;;;0.00;0.00;;;;;;;;;;6274793;28;20115;-83
2023/09/09 07:19:31;;;;;;;0.00;0.00;;;;;;;;;;6265404;28;20028;-83
2023/09/09 07:22:31;;;;;;;;;;;;;;;;;;6277678;28;20623;-83
2023/09/09 07:25:32;;;;;;;0.00;0.00;;;;;;;;;;6289960;28;20008;-84
2023/09/09 07:28:32;;;;;;;0.00;0.00;;;;;;;;;;6306593;28;20428;-84
2023/09/09 07:31:32;;;;;;;;;;;;;;;;;;6299385;28;20012;-82
2023/09/09 07:34:34;;;;;;;0.00;0.00;;;;;;;;;;6282454;28;19915;-83
2023/09/09 07:37:34;;;;;;;0.00;0.00;;;;;;;;;;6300712;28;20795;-83
2023/09/09 07:40:34;;;;;;;;;;;;;;;;;;6279173;28;20024;-83
2023/09/09 07:43:35;;;;;;;0.00;0.00;;;;;;;;;;6282956;28;19947;-83
2023/09/09 07:46:35;;;;;;;;;;;;;;;;;;6296671;28;20095;-83
2023/09/09 07:49:36;;;;;;;0.00;0.00;;;;;;;;;;6303086;28;20019;-83
2023/09/09 07:52:36;;;;;;;;;;;;;;;;;;6298954;28;20029;-83
2023/09/09 07:55:37;;;;;;;0.00;0.00;;;;;;;;;;6288785;28;19904;-83
2023/09/09 07:58:37;;;;;;;;;;;;;;;;;;6290372;28;20379;-83
2023/09/09 08:01:37;;;;;;;0.00;0.00;;;;;;;;;;6284080;28;20389;-83
2023/09/09 08:04:37;;;;;;;;;;;;;;;;;;6296987;28;20024;-83
2023/09/09 08:07:38;;;;;;;0.00;0.00;;;;;;;;;;6292805;28;19967;-83
2023/09/09 08:10:38;;;;;;;0.00;0.00;;;;;;;;;;6274968;28;20108;-83
2023/09/09 08:13:38;;;;;;;0.00;0.00;;;;;;;;;;6298005;28;20031;-83
2023/09/09 08:16:38;;;;;;;;;;;;;;;;;;6286389;28;20020;-83
2023/09/09 08:19:39;;;;;;;0.00;0.00;;;;;;;;;;6275247;28;19924;-83
2023/09/09 08:22:39;;;;;;;;;;;;;;;;;;6309013;28;20599;-83
2023/09/09 08:25:39;;;;;;;0.00;0.00;;;;;;;;;;6313961;28;19999;-83
2023/09/09 08:28:40;;;;;;;;;;;;;;;;;;6294417;28;20104;-84
2023/09/09 08:31:41;;;;;;;0.00;0.00;;;;;;;;;;6293189;28;19908;-83
2023/09/09 08:34:41;;;;;;;0.00;0.00;;;;;;;;;;6300111;28;20024;-83
2023/09/09 08:37:42;;;;;;;0.00;0.00;;;;;;;;;;6279279;28;20025;-83
2023/09/09 08:40:49;;;;;;;0.00;0.00;;;;;;;;;;6270858;28;20020;-83
2023/09/09 08:44:08;;;;;;;0.00;0.00;;;;;;;;;;6284669;28;20819;-82
2023/09/09 08:47:09;;;;;;;0.00;0.00;;;;;;;;;;6294832;28;20032;-83
2023/09/09 08:50:10;;;;;;;0.00;0.00;;;;;;;;;;6291647;28;20016;-82
2023/09/09 08:53:12;;;;;;;0.00;0.00;;;;;;;;;;6277638;28;20027;-82
2023/09/09 08:56:13;;;;;;;0.00;0.00;;;;;;;;;;6277991;28;20031;-83
2023/09/09 08:59:14;;;;;;;0.00;0.00;;;;;;;;;;6277075;28;20059;-83
2023/09/09 09:02:15;;;;;;;0.00;0.00;;;;;;;;;;6288707;28;20025;-83
2023/09/09 09:05:15;;;;;;;;;;;;;;;;;;6276424;28;20021;-82
2023/09/09 09:08:15;;;;;;;0.00;0.00;;;;;;;;;;6272164;28;19955;-83
2023/09/09 09:11:17;;;;;;;0.00;0.00;;;;;;;;;;6272628;28;20028;-83
2023/09/09 09:14:17;;;;;;;0.00;0.00;;;;;;;;;;6270541;28;20279;-83
2023/09/09 09:17:17;;;;;;;0.00;0.00;;;;;;;;;;6290698;28;20039;-82
2023/09/09 09:20:17;;;;;;;;;;;;;;;;;;6260530;28;20204;-83
2023/09/09 09:23:20;;;;;;;0.00;0.00;;;;;;;;;;6298696;28;20000;-83
2023/09/09 09:26:24;;;;;;;0.00;0.00;;;;;;;;;;6290670;28;20135;-82
2023/09/09 09:29:36;;;;;;;0.00;0.00;;;;;;;;;;6292849;28;20025;-83
2023/09/09 09:32:40;;;;;;;0.00;0.00;;;;;;;;;;6298010;28;20055;-82
2023/09/09 09:35:41;;;;;;;0.00;0.00;;;;;;;;;;6293505;28;20020;-83
2023/09/09 09:38:41;;;;;;;;;;;;;;;;;;6271846;28;20035;-83
2023/09/09 09:41:43;;;;;;;0.00;0.00;;;;;;;;;;6293417;28;19939;-83
2023/09/09 09:44:43;;;;;;;0.00;0.00;;;;;;;;;;6287504;28;20103;-83
2023/09/09 09:47:46;;;;;;;0.00;0.00;;;;;;;;;;6277679;28;20028;-83
2023/09/09 09:50:51;;;;;;;0.00;0.00;;;;;;;;;;6272581;28;20021;-83
2023/09/09 09:53:53;;;;;;;0.00;0.00;;;;;;;;;;6283197;28;20043;-83
2023/09/09 09:56:55;;;;;;;0.00;0.00;;;;;;;;;;6301160;28;20020;-83
2023/09/09 09:59:55;;;;;;;0.00;0.00;;;;;;;;;;6295553;28;20062;-83
2023/09/09 10:02:55;;;;;;;;;;;;;;;;;;6274725;28;20016;-83
2023/09/09 10:05:56;;;;;;;0.00;0.00;;;;;;;;;;6289217;28;19923;-84
2023/09/09 10:09:10;;;;;;;0.00;0.00;;;;;;;;;;6300925;28;20048;-84
2023/09/09 10:12:14;;;;;;;0.00;0.00;;;;;;;;;;6284868;28;20432;-84
2023/09/09 10:15:19;;;;;;;0.00;0.00;;;;;;;;;;6272019;28;20025;-84
2023/09/09 10:18:20;;;;;;;0.00;0.00;;;;;;;;;;6287575;28;20028;-84
2023/09/09 10:21:20;;;;;;;;;;;;;;;;;;6273149;28;20031;-84
2023/09/09 10:24:21;;;;;;;0.00;0.00;;;;;;;;;;6266761;28;20382;-84
2023/09/09 10:27:21;;;;;;;;;;;;;;;;;;6271050;28;20026;-82
2023/09/09 10:30:22;;;;;;;0.00;0.00;;;;;;;;;;6283531;28;19919;-84
2023/09/09 10:33:22;;;;;;;;;;;;;;;;;;6273674;28;20116;-84
2023/09/09 10:36:26;;;;;;;0.00;0.00;;;;;;;;;;6264480;28;19912;-84
2023/09/09 10:39:27;;;;;;;0.00;0.00;;;;;;;;;;6303108;28;20083;-84
2023/09/09 10:42:27;;;;;;;;;;;;;;;;;;6275040;28;20378;-84
2023/09/09 10:45:28;;;;;;;0.00;0.00;;;;;;;;;;6300760;28;19908;-84
2023/09/09 10:48:29;;;;;;;0.00;0.00;;;;;;;;;;6290707;28;20029;-84
2023/09/09 10:51:29;;;;;;;;;;;;;;;;;;6268400;28;20028;-83
2023/09/09 10:54:29;;;;;;;0.00;0.00;;;;;;;;;;6270644;28;19975;-84
2023/09/09 10:57:30;;;;;;;;;;;;;;;;;;6286098;28;20060;-84
2023/09/09 11:00:40;;;;;;;0.00;0.00;;;;;;;;;;6286117;28;19908;-85
2023/09/09 11:03:40;;;;;;;0.00;0.00;;;;;;;;;;6294288;28;20096;-84
2023/09/09 11:06:57;;;;;;;0.00;0.00;;;;;;;;;;6283995;28;20515;-84
2023/09/09 11:09:57;;;;;;;0.00;0.00;;;;;;;;;;6280022;28;20079;-84
2023/09/09 11:12:58;;;;;;;;;;;;;;;;;;6286588;28;20486;-84
2023/09/09 11:15:58;;;;;;;0.00;0.00;;;;;;;;;;6284396;28;20449;-84
2023/09/09 11:18:59;;;;;;;;;;;;;;;;;;6287549;28;20024;-84
2023/09/09 11:21:59;;;;;;;0.00;0.00;;;;;;;;;;6264867;28;19920;-85
2023/09/09 11:24:59;;;;;;;;;;;;;;;;;;6266634;28;20016;-84
2023/09/09 11:27:59;;;;;;;0.00;0.00;;;;;;;;;;6275102;28;20413;-93
2023/09/09 11:31:00;;;;;;;0.00;0.00;;;;;;;;;;6275051;28;20359;-93
2023/09/09 11:34:01;;;;;;;0.00;0.00;;;;;;;;;;6280194;28;20024;-93
2023/09/09 11:37:01;;;;;;;;;;;;;;;;;;6285026;28;20111;-93
2023/09/09 11:40:02;;;;;;;0.00;0.00;;;;;;;;;;6267423;28;20277;-93
2023/09/09 11:43:04;;;;;;;0.00;0.00;;;;;;;;;;6271980;28;20012;-93
2023/09/09 11:46:05;;;;;;;0.00;0.00;;;;;;;;;;6270857;28;20021;-93
2023/09/09 11:49:05;;;;;;;0.00;0.00;;;;;;;;;;6293705;28;20040;-93
2023/09/09 11:52:05;;;;;;;0.00;0.00;;;;;;;;;;6284879;28;20073;-94
2023/09/09 11:55:05;;;;;;;0.00;0.00;;;;;;;;;;6283353;28;20320;-94
2023/09/09 11:58:06;;;;;;;0.00;0.00;;;;;;;;;;6290131;28;20273;-94
2023/09/09 12:01:06;;;;;;;0.00;0.00;;;;;;;;;;6274926;28;20481;-94
2023/09/09 12:04:07;;;;;;;0.00;0.00;;;;;;;;;;6294497;28;20016;-93
2023/09/09 12:07:07;;;;;;;0.00;0.00;;;;;;;;;;6290300;28;20404;-93
2023/09/09 12:10:12;;;;;;;0.00;0.00;;;;;;;;;;6295705;28;21238;-94
2023/09/09 12:13:13;;;;;;;0.00;0.00;;;;;;;;;;6301807;28;20020;-93
2023/09/09 12:16:14;;;;;;;0.00;0.00;;;;;;;;;;6272845;28;20054;-94
2023/09/09 12:19:14;;;;;;;0.00;0.00;;;;;;;;;;6305518;28;20441;-94
2023/09/09 12:22:26;;;;;;;0.00;0.00;;;;;;;;;;6316385;28;20423;-94
2023/09/09 12:25:28;;;;;;;0.00;0.00;;;;;;;;;;6268173;28;20024;-85
2023/09/09 12:28:28;;;;;;;0.00;0.00;;;;;;;;;;6299241;28;20020;-84
2023/09/09 12:31:28;;;;;;;0.00;0.00;;;;;;;;;;6275482;28;20397;-84
2023/09/09 12:34:29;;;;;;;0.00;0.00;;;;;;;;;;6270606;28;20056;-84
2023/09/09 12:37:29;;;;;;;0.00;0.00;;;;;;;;;;6268130;28;20013;-84
2023/09/09 12:40:48;;;;;;;0.00;0.00;;;;;;;;;;6285220;28;20402;-84
2023/09/09 12:43:51;;;;;;;0.00;0.00;;;;;;;;;;6290215;28;20230;-84
2023/09/09 12:46:52;;;;;;;0.00;0.00;;;;;;;;;;6303618;28;20023;-84
2023/09/09 12:49:52;;;;;;;0.00;0.00;;;;;;;;;;6274084;28;20021;-84
2023/09/09 12:52:57;;;;;;;0.00;0.00;;;;;;;;;;6301641;28;20055;-84
2023/09/09 12:55:58;;;;;;;0.00;0.00;;;;;;;;;;6289349;28;20277;-84
2023/09/09 12:58:59;;;;;;;0.00;0.00;;;;;;;;;;6288968;28;20032;-84
2023/09/09 13:01:59;;;;;;;0.00;0.00;;;;;;;;;;6294155;28;20095;-84
2023/09/09 13:04:59;;;;;;;0.00;0.00;;;;;;;;;;6277418;28;20087;-84
2023/09/09 13:08:01;;;;;;;0.00;0.00;;;;;;;;;;6276339;28;20076;-85
2023/09/09 13:11:01;;;;;;;0.00;0.00;;;;;;;;;;6289468;28;20783;-83
2023/09/09 13:14:02;;;;;;;0.00;0.00;;;;;;;;;;6279283;28;20016;-84
2023/09/09 13:17:04;;;;;;;0.00;0.00;;;;;;;;;;6290506;28;20035;-83
2023/09/09 13:20:06;;;;;;;0.00;0.00;;;;;;;;;;6285989;28;20107;-84
2023/09/09 13:23:07;;;;;;;0.00;0.00;;;;;;;;;;6282923;28;20517;-83
2023/09/09 13:26:07;;;;;;;0.00;0.00;;;;;;;;;;6273926;28;20016;-84
2023/09/09 13:29:07;;;;;;;0.00;0.00;;;;;;;;;;6275880;28;20442;-83
2023/09/09 13:32:07;;;;;;;0.00;0.00;;;;;;;;;;6275589;28;20059;-84
2023/09/09 13:35:08;;;;;;;0.00;0.00;;;;;;;;;;6272930;28;20458;-84
2023/09/09 13:38:08;;;;;;;0.00;0.00;;;;;;;;;;6278735;28;20466;-93
2023/09/09 13:41:08;;;;;;;0.00;0.00;;;;;;;;;;6283485;28;20291;-94
2023/09/09 13:44:08;;;;;;;0.00;0.00;;;;;;;;;;6267845;28;20025;-93
2023/09/09 13:47:09;;;;;;;0.00;0.00;;;;;;;;;;6287272;28;20013;-83
2023/09/09 13:50:09;;;;;;;0.00;0.00;;;;;;;;;;6292240;28;20028;-83
2023/09/09 13:53:09;;;;;;;0.00;0.00;;;;;;;;;;6291338;28;20070;-83
2023/09/09 13:56:10;;;;;;;0.00;0.00;;;;;;;;;;6291783;28;20027;-83
2023/09/09 13:59:10;;;;;;;0.00;0.00;;;;;;;;;;6285877;28;20141;-84
2023/09/09 14:02:11;;;;;;;0.00;0.00;;;;;;;;;;6291285;28;20017;-83
2023/09/09 14:05:11;;;;;;;0.00;0.00;;;;;;;;;;6290017;28;20064;-83
2023/09/09 14:08:11;;;;;;;0.00;0.00;;;;;;;;;;6293703;28;20012;-83
2023/09/09 14:11:11;;;;;;;0.00;0.00;;;;;;;;;;6276454;28;20070;-84
2023/09/09 14:14:12;;;;;;;0.00;0.00;;;;;;;;;;6248745;28;20020;-83
2023/09/09 14:17:14;;;;;;;0.00;0.00;;;;;;;;;;6284659;28;20016;-83
2023/09/09 14:20:14;;;;;;;0.00;0.00;;;;;;;;;;6294710;28;20471;-82
2023/09/09 14:23:15;;;;;;;0.00;0.00;;;;;;;;;;6295463;28;20012;-81
2023/09/09 14:26:16;;;;;;;0.00;0.00;;;;;;;;;;6307197;28;20017;-84
2023/09/09 14:29:17;;;;;;;0.00;0.00;;;;;;;;;;6300794;28;20020;-86
2023/09/09 14:32:17;;;;;;;0.00;0.00;;;;;;;;;;6292222;28;20071;-83
2023/09/09 14:35:17;;;;;;;0.00;0.00;;;;;;;;;;6280611;28;20438;-84
2023/09/09 14:38:17;;;;;;;0.00;0.00;;;;;;;;;;6271948;28;20070;-84
2023/09/09 14:41:18;;;;;;;0.00;0.00;;;;;;;;;;6264539;28;20891;-84
2023/09/09 14:44:18;;;;;;;0.00;0.00;;;;;;;;;;6290126;28;20259;-84
2023/09/09 14:47:18;;;;;;;0.00;0.00;;;;;;;;;;6289537;28;20047;-83
2023/09/09 14:50:18;;;;;;;0.00;0.00;;;;;;;;;;6276636;28;20367;-84
2023/09/09 14:53:19;;;;;;;0.00;0.00;;;;;;;;;;6292785;28;20013;-84
2023/09/09 14:56:19;;;;;;;0.00;0.00;;;;;;;;;;6281342;28;20079;-84
2023/09/09 14:59:19;;;;;;;0.00;0.00;;;;;;;;;;6287285;28;20025;-84
2023/09/09 15:02:19;;;;;;;0.00;0.00;;;;;;;;;;6283948;28;20474;-83
2023/09/09 15:05:20;;;;;;;0.00;0.00;;;;;;;;;;6272468;28;20056;-82
2023/09/09 15:08:20;;;;;;;0.00;0.00;;;;;;;;;;6286630;28;20025;-83
2023/09/09 15:11:20;;;;;;;0.00;0.00;;;;;;;;;;6283759;28;20259;-83
2023/09/09 15:14:21;;;;;;;0.00;0.00;;;;;;;;;;6278866;28;20024;-84
2023/09/09 15:17:21;;;;;;;0.00;0.00;;;;;;;;;;6292191;28;20474;-84
2023/09/09 15:20:21;;;;;;;0.00;0.00;;;;;;;;;;6290611;28;20378;-84
2023/09/09 15:23:21;;;;;;;0.00;0.00;;;;;;;;;;6300535;28;20534;-83
2023/09/09 15:26:22;;;;;;;0.00;0.00;;;;;;;;;;6272338;28;20045;-83
2023/09/09 15:29:22;;;;;;;0.00;0.00;;;;;;;;;;6284340;28;20055;-84
2023/09/09 15:32:22;;;;;;;0.00;0.00;;;;;;;;;;6289145;28;20123;-84
2023/09/09 15:35:23;;;;;;;0.00;0.00;;;;;;;;;;6276990;28;20344;-84
2023/09/09 15:38:24;;;;;;;0.00;0.00;;;;;;;;;;6283139;28;20477;-83
2023/09/09 15:41:25;;;;;;;0.00;0.00;;;;;;;;;;6295064;28;20054;-83
2023/09/09 15:44:26;;;;;;;0.00;0.00;;;;;;;;;;6295424;28;20017;-83
2023/09/09 15:47:26;;;;;;;0.00;0.00;;;;;;;;;;6300527;28;20019;-83
2023/09/09 15:50:26;;;;;;;0.00;0.00;;;;;;;;;;6297448;28;20020;-83
2023/09/09 15:53:27;;;;;;;0.00;0.00;;;;;;;;;;6297208;28;20020;-83
2023/09/09 15:56:27;;;;;;;0.00;0.00;;;;;;;;;;6276608;28;20115;-83
2023/09/09 15:59:27;;;;;;;0.00;0.00;;;;;;;;;;6291328;28;20024;-83
2023/09/09 16:02:27;;;;;;;0.00;0.00;;;;;;;;;;6293457;28;20017;-84
2023/09/09 16:05:29;;;;;;;0.00;0.00;;;;;;;;;;6286384;28;20074;-88
2023/09/09 16:08:36;;;;;;;0.00;0.00;;;;;;;;;;6296997;28;20025;-88
2023/09/09 16:11:37;;;;;;;0.00;0.00;;;;;;;;;;6295998;28;20013;-89
2023/09/09 16:14:37;;;;;;;0.00;0.00;;;;;;;;;;6300956;28;20405;-88
2023/09/09 16:17:37;;;;;;;0.00;0.00;;;;;;;;;;6277072;28;20445;-89
2023/09/09 16:20:37;;;;;;;0.00;0.00;;;;;;;;;;6289087;28;20021;-88
2023/09/09 16:23:38;;;;;;;0.00;0.00;;;;;;;;;;6275142;28;20016;-89
2023/09/09 16:26:38;;;;;;;0.00;0.00;;;;;;;;;;6270842;28;20545;-88
2023/09/09 16:29:38;;;;;;;0.00;0.00;;;;;;;;;;6279207;28;20039;-89
2023/09/09 16:32:38;;;;;;;;;;;;;;;;;;6307360;28;20149;-90
2023/09/09 16:35:42;;;;;;;0.00;0.00;;;;;;;;;;6282851;28;19908;-89
2023/09/09 16:38:42;;;;;;;0.00;0.00;;;;;;;;;;6286935;28;20415;-90
2023/09/09 16:41:43;;;;;;;;;;;;;;;;;;6291129;28;20039;-91
2023/09/09 16:44:43;;;;;;;0.00;0.00;;;;;;;;;;6285807;28;19916;-90
2023/09/09 16:47:44;;;;;;;;;;;;;;;;;;6302794;28;20485;-90
2023/09/09 16:50:44;;;;;;;0.00;0.00;;;;;;;;;;6303631;28;19908;-90
2023/09/09 16:53:44;;;;;;;0.00;0.00;;;;;;;;;;6288019;28;20388;-90
2023/09/09 16:56:45;;;;;;;0.00;0.00;;;;;;;;;;6286616;28;20020;-90
2023/09/09 16:59:45;;;;;;;0.00;0.00;;;;;;;;;;6294703;28;20021;-90
2023/09/09 17:02:45;;;;;;;0.00;0.00;;;;;;;;;;6283943;28;20034;-90
2023/09/09 17:05:46;;;;;;;0.00;0.00;;;;;;;;;;6268382;28;20120;-84
2023/09/09 17:08:46;;;;;;;0.00;0.00;;;;;;;;;;6292307;28;20027;-86
2023/09/09 17:11:46;;;;;;;0.00;0.00;;;;;;;;;;6271296;28;20399;-85
2023/09/09 17:14:46;;;;;;;0.00;0.00;;;;;;;;;;6298798;28;20425;-85
2023/09/09 17:17:47;;;;;;;0.00;0.00;;;;;;;;;;6303228;28;20025;-85
2023/09/09 17:20:47;;;;;;;0.00;0.00;;;;;;;;;;6283559;28;20356;-83
2023/09/09 17:23:47;;;;;;;0.10;0.10;;;;;;;;;;6287281;28;20016;-83
2023/09/09 17:26:47;;;;;;;0.00;0.00;;;;;;;;;;6278974;28;20013;-83
2023/09/09 17:29:48;;;;;;;0.10;0.10;;;;;;;;;;6278389;28;20031;-83
2023/09/09 17:32:54;;;;;;;0.10;0.10;;;;;;;;;;6269448;28;20088;-83
2023/09/09 17:35:56;;;;;;;0.00;0.00;;;;;;;;;;6278353;28;20028;-82
2023/09/09 17:39:10;;;;;;;0.00;0.00;;;;;;;;;;6286399;28;20458;-85
2023/09/09 17:42:10;;;;;;;0.10;0.10;;;;;;;;;;6273335;28;20024;-83
2023/09/09 17:45:11;;;;;;;0.00;0.00;;;;;;;;;;6269434;28;20059;-84
2023/09/09 17:48:11;;;;;;;0.00;0.00;;;;;;;;;;6282895;28;20009;-84
2023/09/09 17:51:11;;;;;;;0.00;0.00;;;;;;;;;;6284768;28;20021;-84
2023/09/09 17:54:11;;;;;;;0.10;0.10;;;;;;;;;;6268530;28;20032;-84
2023/09/09 17:57:12;;;;;;;0.00;0.00;;;;;;;;;;6285575;28;20055;-84
2023/09/09 18:00:12;;;;;;;0.00;0.00;;;;;;;;;;6277131;28;20493;-84
2023/09/09 18:03:12;;;;;;;0.10;0.10;;;;;;;;;;6272251;28;20013;-84
2023/09/09 18:06:13;;;;;;;0.10;0.10;;;;;;;;;;6269873;28;20090;-85
2023/09/09 18:09:13;;;;;;;0.00;0.00;;;;;;;;;;6276036;28;20478;-85
2023/09/09 18:12:13;;;;;;;0.10;0.10;;;;;;;;;;6270877;28;20113;-85